Time;durP1;ratioP1;P1;durP2;ratioP2;P2;SDS_P1;SDS_P2;PMS_P1;PMS_P2;Temp;Humidity;BMP_temperature;BMP_pressure;BME280_temperature;BME280_humidity;BME280_pressure;Samples;Min_cycle;Max_cycle;Signal;HPM_P1;HPM_P2
2023/12/07 00:00:28;;;;;;;1.50;1.40;;;;;;;9.12;100.00;94941.00;5120531;27;21015;-56
2023/12/07 00:02:57;;;;;;;1.80;1.70;;;;;;;9.41;100.00;94941.19;5120094;27;20439;-57
2023/12/07 00:05:25;;;;;;;1.70;1.60;;;;;;;9.38;100.00;94942.53;5131037;27;20434;-57
2023/12/07 00:07:54;;;;;;;1.93;1.80;;;;;;;9.35;100.00;94945.69;5131792;27;20966;-57
2023/12/07 00:10:22;;;;;;;1.90;0.90;;;;;;;9.48;100.00;94953.06;5132151;27;20849;-57
2023/12/07 00:12:51;;;;;;;0.63;0.60;;;;;;;9.63;100.00;94943.47;5132302;27;20442;-57
2023/12/07 00:15:21;;;;;;;0.80;0.80;;;;;;;9.58;100.00;94945.09;5105185;27;20535;-57
2023/12/07 00:17:50;;;;;;;1.07;0.93;;;;;;;9.34;100.00;94941.47;5131916;27;20823;-56
2023/12/07 00:20:18;;;;;;;0.30;0.30;;;;;;;9.24;100.00;94946.00;5132498;27;20430;-56
2023/12/07 00:22:47;;;;;;;0.73;0.73;;;;;;;9.19;100.00;94946.81;5131883;27;20503;-55
2023/12/07 00:25:16;;;;;;;2.30;0.93;;;;;;;9.29;100.00;94957.34;5132429;27;20438;-56
2023/12/07 00:27:45;;;;;;;0.40;0.40;;;;;;;9.38;100.00;94949.66;5131933;28;20441;-56
2023/12/07 00:30:14;;;;;;;0.40;0.30;;;;;;;9.18;100.00;94955.00;5132338;28;20458;-56
2023/12/07 00:32:44;;;;;;;1.50;0.83;;;;;;;9.26;100.00;94952.59;5134665;27;20480;-56
2023/12/07 00:35:14;;;;;;;2.70;1.47;;;;;;;9.30;100.00;94952.84;5136009;27;20473;-56
2023/12/07 00:37:43;;;;;;;2.20;1.73;;;;;;;8.64;100.00;94865.03;5136525;27;20431;-56
2023/12/07 00:40:12;;;;;;;1.37;1.30;;;;;;;9.26;100.00;94959.75;5136616;27;20446;-56
2023/12/07 00:42:41;;;;;;;0.80;0.80;;;;;;;9.36;100.00;94955.19;5135824;27;20439;-56
2023/12/07 00:45:10;;;;;;;1.27;1.03;;;;;;;9.26;100.00;94959.75;5136255;27;20472;-56
2023/12/07 00:47:38;;;;;;;1.37;1.33;;;;;;;9.37;100.00;94963.94;5136131;27;20446;-56
2023/12/07 00:50:09;;;;;;;3.43;2.50;;;;;;;9.26;100.00;94954.47;5135557;27;20478;-56
2023/12/07 00:52:38;;;;;;;13.87;2.20;;;;;;;9.33;100.00;94965.53;5135666;27;20465;-56
2023/12/07 00:55:07;;;;;;;0.80;0.80;;;;;;;9.36;100.00;94972.94;5135321;27;20466;-56
2023/12/07 00:57:40;;;;;;;0.50;0.40;;;;;;;9.37;100.00;94975.31;5135509;27;20446;-56
2023/12/07 01:00:10;;;;;;;0.60;0.57;;;;;;;9.41;100.00;94957.06;5135825;27;20816;-57
2023/12/07 01:02:41;;;;;;;1.13;0.97;;;;;;;9.44;100.00;94975.00;5135826;27;20521;-57
2023/12/07 01:05:11;;;;;;;1.20;1.20;;;;;;;9.48;100.00;94984.00;5134084;27;20479;-56
2023/12/07 01:07:39;;;;;;;1.03;1.03;;;;;;;9.38;100.00;94978.75;5135175;27;20442;-57
2023/12/07 01:10:09;;;;;;;0.60;0.60;;;;;;;9.39;100.00;94977.66;5135473;27;20882;-57
2023/12/07 01:12:38;;;;;;;1.23;1.23;;;;;;;9.15;100.00;94974.06;5135743;27;20934;-57
2023/12/07 01:15:07;;;;;;;3.53;1.90;;;;;;;9.11;100.00;94980.94;5135404;27;20493;-57
2023/12/07 01:17:36;;;;;;;3.80;0.93;;;;;;;9.13;100.00;94981.47;5135580;27;20434;-57
2023/12/07 01:20:07;;;;;;;0.80;0.80;;;;;;;9.24;100.00;94978.50;5135172;27;20490;-57
2023/12/07 01:22:37;;;;;;;0.80;0.77;;;;;;;9.46;100.00;94980.84;5135323;27;20946;-56
2023/12/07 01:25:07;;;;;;;2.20;0.90;;;;;;;9.57;100.00;94972.59;5109425;27;20439;-57
2023/12/07 01:27:36;;;;;;;1.17;0.60;;;;;;;9.59;100.00;94972.31;5134830;27;20438;-57
2023/12/07 01:30:07;;;;;;;3.40;1.27;;;;;;;9.48;100.00;94966.28;5135557;27;20450;-57
2023/12/07 01:32:35;;;;;;;1.63;1.43;;;;;;;9.32;100.00;94975.31;5135100;27;20934;-57
2023/12/07 01:35:05;;;;;;;3.33;1.50;;;;;;;9.35;100.00;94966.06;5134977;27;21013;-57
2023/12/07 01:37:33;;;;;;;1.53;1.43;;;;;;;9.38;100.00;94962.88;5134905;27;20851;-57
2023/12/07 01:40:09;;;;;;;1.20;1.20;;;;;;;9.32;100.00;94950.72;5134915;27;20438;-57
2023/12/07 01:42:39;;;;;;;3.47;0.60;;;;;;;9.41;100.00;94967.63;5134429;27;20434;-57
2023/12/07 01:45:08;;;;;;;1.63;1.53;;;;;;;9.32;100.00;94958.66;5134784;27;20438;-57
2023/12/07 01:47:38;;;;;;;1.10;1.10;;;;;;;9.35;100.00;94966.06;5135163;27;20552;-57
2023/12/07 01:50:09;;;;;;;1.27;1.23;;;;;;;9.36;100.00;94965.00;5134257;27;20458;-57
2023/12/07 01:52:42;;;;;;;1.30;0.80;;;;;;;9.38;100.00;94957.59;5105225;27;20503;-57
2023/12/07 01:55:13;;;;;;;0.67;0.67;;;;;;;9.21;100.00;94949.19;5128906;27;20466;-57
2023/12/07 01:57:44;;;;;;;1.50;1.03;;;;;;;9.30;100.00;94960.78;5134927;27;20448;-57
2023/12/07 02:00:14;;;;;;;1.90;1.80;;;;;;;9.38;100.00;94957.59;5131668;27;20442;-57
2023/12/07 02:02:45;;;;;;;0.53;0.53;;;;;;;9.52;100.00;94948.00;5124384;27;20485;-57
2023/12/07 02:05:14;;;;;;;0.60;0.53;;;;;;;9.49;100.00;94951.19;5134520;27;20458;-57
2023/12/07 02:07:43;;;;;;;4.33;1.13;;;;;;;9.67;100.00;94940.00;5134988;27;20468;-57
2023/12/07 02:10:13;;;;;;;0.87;0.70;;;;;;;9.65;100.00;94944.78;5134048;27;21225;-57
2023/12/07 02:12:42;;;;;;;0.57;0.50;;;;;;;9.51;100.00;94944.56;5134449;27;20947;-57
2023/12/07 02:15:12;;;;;;;3.50;1.60;;;;;;;9.36;100.00;94941.22;5134148;27;20471;-57
2023/12/07 02:17:47;;;;;;;1.70;1.13;;;;;;;8.83;100.00;94940.78;5134252;27;20439;-57
2023/12/07 02:20:22;;;;;;;5.47;1.30;;;;;;;8.74;100.00;94950.34;5110045;27;20499;-57
2023/12/07 02:22:55;;;;;;;0.80;0.50;;;;;;;8.86;100.00;94944.75;5134096;27;20522;-57
2023/12/07 02:25:33;;;;;;;0.83;0.83;;;;;;;8.89;100.00;94944.22;5134554;27;20430;-57
2023/12/07 02:28:03;;;;;;;0.60;0.60;;;;;;;8.70;100.00;94941.34;5133676;27;20887;-57
2023/12/07 02:30:32;;;;;;;2.40;1.23;;;;;;;8.18;100.00;94890.66;5134728;27;20438;-57
2023/12/07 02:33:00;;;;;;;0.73;0.73;;;;;;;8.79;100.00;94946.88;5133143;27;20442;-57
2023/12/07 02:35:30;;;;;;;1.20;0.70;;;;;;;8.59;100.00;94939.00;5133132;27;20458;-57
2023/12/07 02:37:59;;;;;;;0.90;0.90;;;;;;;8.83;100.00;94946.09;5106943;27;20470;-57
2023/12/07 02:40:30;;;;;;;1.07;0.90;;;;;;;8.28;100.00;94891.47;5119914;27;20814;-57
2023/12/07 02:43:00;;;;;;;1.20;1.13;;;;;;;8.59;100.00;94942.44;5133741;27;20438;-57
2023/12/07 02:45:30;;;;;;;0.70;0.70;;;;;;;8.18;100.00;94941.59;5133724;27;20449;-57
2023/12/07 02:47:59;;;;;;;2.87;1.07;;;;;;;8.08;100.00;94936.31;5134212;27;20937;-57
2023/12/07 02:50:27;;;;;;;1.73;1.40;;;;;;;8.20;100.00;94928.91;5133228;27;20478;-56
2023/12/07 02:52:56;;;;;;;2.40;1.20;;;;;;;8.48;100.00;94932.91;5133821;27;20445;-57
2023/12/07 02:55:25;;;;;;;0.90;0.60;;;;;;;8.60;100.00;94933.44;5131984;27;20474;-57
2023/12/07 02:57:53;;;;;;;0.63;0.63;;;;;;;8.47;100.00;94933.19;5134114;27;20442;-57
2023/12/07 03:00:22;;;;;;;2.30;1.57;;;;;;;8.52;100.00;94931.34;5133237;27;20442;-57
2023/12/07 03:02:52;;;;;;;1.00;0.93;;;;;;;8.57;100.00;94927.91;5133802;27;20817;-56
2023/12/07 03:05:22;;;;;;;1.00;0.80;;;;;;;8.99;100.00;94924.91;5133636;27;20462;-56
2023/12/07 03:07:51;;;;;;;6.73;0.80;;;;;;;8.97;100.00;94916.47;5132705;27;20911;-56
2023/12/07 03:10:20;;;;;;;0.77;0.77;;;;;;;8.76;100.00;94923.63;5132612;27;20521;-57
2023/12/07 03:12:48;;;;;;;0.53;0.53;;;;;;;8.46;100.00;94924.47;5134001;27;20828;-57
2023/12/07 03:15:17;;;;;;;3.23;1.17;;;;;;;8.53;100.00;94926.81;5133448;27;20499;-57
2023/12/07 03:17:45;;;;;;;2.23;2.07;;;;;;;8.24;100.00;94916.00;5133144;27;20513;-57
2023/12/07 03:20:16;;;;;;;5.00;1.83;;;;;;;8.20;100.00;94936.03;5133237;27;20439;-57
2023/12/07 03:22:44;;;;;;;1.90;1.80;;;;;;;7.86;100.00;94927.03;5132635;27;20894;-57
2023/12/07 03:25:13;;;;;;;0.93;0.93;;;;;;;8.19;100.00;94935.28;5133329;27;20437;-57
2023/12/07 03:27:42;;;;;;;1.30;1.23;;;;;;;7.39;100.00;94840.16;5132304;27;20875;-57
2023/12/07 03:30:11;;;;;;;1.33;0.83;;;;;;;8.12;100.00;94933.94;5133134;27;20442;-57
2023/12/07 03:32:40;;;;;;;0.87;0.67;;;;;;;8.10;100.00;94928.13;5132370;27;20950;-57
2023/12/07 03:35:09;;;;;;;1.20;1.20;;;;;;;8.37;100.00;94936.63;5133464;27;20434;-57
2023/12/07 03:37:39;;;;;;;13.90;1.13;;;;;;;8.56;100.00;94942.16;5132411;27;20442;-57
2023/12/07 03:40:09;;;;;;;0.50;0.33;;;;;;;8.49;100.00;94931.88;5133294;27;20446;-57
2023/12/07 03:42:38;;;;;;;0.70;0.60;;;;;;;8.30;100.00;94939.50;5133004;27;20448;-57
2023/12/07 03:45:23;;;;;;;0.43;0.40;;;;;;;8.45;100.00;94938.72;5132652;27;20448;-57
2023/12/07 03:47:52;;;;;;;1.77;0.80;;;;;;;8.62;100.00;94936.63;5132755;27;20931;-57
2023/12/07 03:50:21;;;;;;;0.90;0.80;;;;;;;8.69;100.00;94945.06;5131697;27;20470;-57
2023/12/07 03:52:51;;;;;;;0.40;0.37;;;;;;;8.81;100.00;94939.47;5132696;27;20529;-57
2023/12/07 03:55:19;;;;;;;0.40;0.30;;;;;;;8.82;100.00;94935.78;5132399;27;20466;-57
2023/12/07 03:57:48;;;;;;;1.60;1.60;;;;;;;8.81;100.00;94939.47;5132976;27;20438;-57
2023/12/07 04:00:17;;;;;;;0.40;0.30;;;;;;;8.82;100.00;94936.59;5132875;27;20427;-57
2023/12/07 04:02:46;;;;;;;0.80;0.80;;;;;;;8.50;100.00;94938.72;5133155;27;20434;-57
2023/12/07 04:05:15;;;;;;;0.80;0.57;;;;;;;8.56;100.00;94947.44;5132131;27;20442;-57
2023/12/07 04:07:43;;;;;;;0.50;0.47;;;;;;;8.63;100.00;94948.75;5131341;27;20503;-57
2023/12/07 04:10:14;;;;;;;0.87;0.87;;;;;;;8.30;100.00;94930.78;5132245;27;20427;-57
2023/12/07 04:12:42;;;;;;;1.47;0.50;;;;;;;8.71;100.00;94950.84;5132261;27;20459;-57
2023/12/07 04:15:11;;;;;;;0.40;0.30;;;;;;;8.62;100.00;94931.34;5132476;27;20489;-57
2023/12/07 04:17:43;;;;;;;0.60;0.60;;;;;;;8.46;100.00;94952.72;5131894;27;20565;-57
2023/12/07 04:20:12;;;;;;;1.60;1.60;;;;;;;8.42;100.00;94956.97;5132373;27;20922;-57
2023/12/07 04:22:41;;;;;;;0.50;0.40;;;;;;;8.52;100.00;94951.69;5132301;27;20525;-57
2023/12/07 04:25:10;;;;;;;14.53;1.50;;;;;;;8.60;100.00;94962.47;5132180;27;20442;-57
2023/12/07 04:27:40;;;;;;;0.43;0.40;;;;;;;8.52;100.00;94956.97;5131916;27;20553;-57
2023/12/07 04:30:10;;;;;;;0.70;0.70;;;;;;;8.31;100.00;94964.06;5130991;28;20441;-56
2023/12/07 04:32:39;;;;;;;3.67;0.80;;;;;;;8.25;100.00;94965.09;5132516;28;20525;-57
2023/12/07 04:35:08;;;;;;;0.80;0.80;;;;;;;8.55;100.00;94959.84;5131135;28;20985;-57
2023/12/07 04:37:37;;;;;;;1.90;0.83;;;;;;;8.68;100.00;94967.25;5132227;27;20550;-57
2023/12/07 04:40:07;;;;;;;1.23;0.40;;;;;;;8.71;100.00;94966.72;5131915;28;20483;-57
2023/12/07 04:42:36;;;;;;;1.47;0.93;;;;;;;8.73;100.00;94977.81;5132053;28;20438;-57
2023/12/07 04:45:07;;;;;;;1.10;1.10;;;;;;;8.61;100.00;94972.00;5119597;28;20439;-57
2023/12/07 04:47:36;;;;;;;5.23;0.50;;;;;;;8.61;100.00;94976.50;5131530;28;20465;-57
2023/12/07 04:50:05;;;;;;;0.50;0.30;;;;;;;8.51;100.00;94977.28;5131821;28;20541;-57
2023/12/07 04:52:34;;;;;;;1.50;0.87;;;;;;;8.61;100.00;94976.50;5105553;28;20466;-57
2023/12/07 04:55:06;;;;;;;0.57;0.50;;;;;;;8.50;100.00;94959.84;5131162;27;20949;-58
2023/12/07 04:57:35;;;;;;;0.43;0.40;;;;;;;8.39;100.00;94973.31;5131505;28;20564;-57
2023/12/07 05:00:06;;;;;;;3.10;0.80;;;;;;;8.54;100.00;94979.41;5132219;28;20477;-57
2023/12/07 05:02:36;;;;;;;0.87;0.50;;;;;;;8.36;100.00;94977.28;5131507;28;20806;-57
2023/12/07 05:05:05;;;;;;;0.80;0.73;;;;;;;8.11;100.00;94972.75;5131800;27;20441;-58
2023/12/07 05:07:33;;;;;;;3.83;1.20;;;;;;;8.23;100.00;94975.13;5131861;27;20434;-57
2023/12/07 05:10:03;;;;;;;0.40;0.30;;;;;;;8.42;100.00;94978.88;5131390;28;20970;-57
2023/12/07 05:12:32;;;;;;;0.63;0.63;;;;;;;8.52;100.00;94972.81;5131423;27;20431;-57
2023/12/07 05:15:01;;;;;;;0.63;0.63;;;;;;;8.58;100.00;94982.28;5131171;27;20516;-57
2023/12/07 05:17:29;;;;;;;2.73;1.07;;;;;;;8.47;100.00;94992.09;5132167;27;20509;-57
2023/12/07 05:19:59;;;;;;;1.33;1.23;;;;;;;8.42;100.00;94986.81;5135479;27;20791;-57
2023/12/07 05:22:28;;;;;;;0.90;0.47;;;;;;;8.39;100.00;94992.59;5134664;27;20517;-58
2023/12/07 05:24:57;;;;;;;0.70;0.70;;;;;;;8.60;100.00;94994.19;5135241;27;20444;-58
2023/12/07 05:27:25;;;;;;;1.30;1.17;;;;;;;8.59;100.00;94995.25;5134950;27;20451;-58
2023/12/07 05:29:54;;;;;;;2.00;0.73;;;;;;;8.63;100.00;94996.31;5134881;27;20513;-57
2023/12/07 05:32:23;;;;;;;0.50;0.43;;;;;;;8.55;100.00;94994.19;5135205;27;20461;-57
2023/12/07 05:34:52;;;;;;;1.07;0.87;;;;;;;8.26;100.00;94974.59;5134227;27;20442;-57
2023/12/07 05:37:22;;;;;;;0.63;0.57;;;;;;;8.24;100.00;94996.00;5134346;27;20474;-57
2023/12/07 05:39:50;;;;;;;1.70;1.60;;;;;;;7.65;100.00;94949.94;5135066;27;20434;-57
2023/12/07 05:42:19;;;;;;;1.30;1.00;;;;;;;8.01;100.00;94993.03;5134735;27;20469;-57
2023/12/07 05:44:48;;;;;;;2.00;1.90;;;;;;;7.90;100.00;95008.03;5135477;27;20521;-58
2023/12/07 05:47:16;;;;;;;2.57;2.37;;;;;;;7.78;100.00;94991.66;5134152;27;20967;-57
2023/12/07 05:49:45;;;;;;;4.30;1.17;;;;;;;8.21;100.00;95014.19;5134317;27;20459;-58
2023/12/07 05:52:13;;;;;;;1.37;1.37;;;;;;;8.05;100.00;95009.94;5134357;27;20488;-58
2023/12/07 05:54:46;;;;;;;1.67;1.30;;;;;;;8.15;100.00;95017.88;5134240;27;20442;-56
2023/12/07 05:57:15;;;;;;;3.03;1.17;;;;;;;8.48;100.00;95020.06;5134806;27;20539;-57
2023/12/07 05:59:44;;;;;;;0.73;0.70;;;;;;;8.44;100.00;95005.81;5134745;27;20517;-57
2023/12/07 06:02:13;;;;;;;2.10;1.13;;;;;;;8.55;100.00;95014.53;5134577;27;20438;-58
2023/12/07 06:04:42;;;;;;;0.50;0.40;;;;;;;8.51;100.00;95014.25;5134277;27;20918;-58
2023/12/07 06:07:12;;;;;;;1.20;1.10;;;;;;;8.35;100.00;95015.28;5134762;27;20475;-56
2023/12/07 06:09:41;;;;;;;0.73;0.73;;;;;;;8.47;100.00;95020.34;5134650;27;20438;-56
2023/12/07 06:12:11;;;;;;;1.47;1.47;;;;;;;8.49;100.00;95013.75;5134425;27;20456;-57
2023/12/07 06:14:40;;;;;;;0.60;0.60;;;;;;;8.30;100.00;95002.88;5134034;27;20477;-57
2023/12/07 06:17:09;;;;;;;0.47;0.40;;;;;;;8.41;100.00;95018.75;5134444;27;20466;-57
2023/12/07 06:19:37;;;;;;;2.10;2.00;;;;;;;8.22;100.00;95010.50;5134371;27;20464;-57
2023/12/07 06:22:06;;;;;;;0.40;0.40;;;;;;;8.31;100.00;95011.59;5134550;27;20491;-57
2023/12/07 06:24:35;;;;;;;0.57;0.53;;;;;;;8.20;100.00;95023.16;5133300;27;20458;-57
2023/12/07 06:27:04;;;;;;;0.93;0.70;;;;;;;8.25;100.00;95020.53;5128292;27;20999;-57
2023/12/07 06:29:34;;;;;;;1.40;1.40;;;;;;;8.30;100.00;95018.72;5132695;27;20449;-57
2023/12/07 06:32:03;;;;;;;0.40;0.40;;;;;;;8.50;100.00;95023.22;5134346;27;20446;-57
2023/12/07 06:34:31;;;;;;;2.30;0.73;;;;;;;8.14;100.00;95025.00;5133672;27;20521;-58
2023/12/07 06:37:00;;;;;;;2.07;1.97;;;;;;;7.95;100.00;95026.53;5134215;27;20503;-57
2023/12/07 06:39:29;;;;;;;0.50;0.50;;;;;;;8.06;100.00;95032.63;5132999;27;20446;-56
2023/12/07 06:41:59;;;;;;;1.37;1.37;;;;;;;7.79;100.00;95032.03;5134051;27;20442;-57
2023/12/07 06:44:28;;;;;;;1.57;1.47;;;;;;;8.12;100.00;95027.09;5133563;27;20981;-58
2023/12/07 06:46:58;;;;;;;0.80;0.80;;;;;;;8.35;100.00;95031.13;5133793;27;20442;-57
2023/12/07 06:49:27;;;;;;;5.37;1.40;;;;;;;8.20;100.00;95033.72;5107707;27;20462;-58
2023/12/07 06:52:14;;;;;;;0.97;0.60;;;;;;;8.08;100.00;95027.88;5133715;27;20495;-58
2023/12/07 06:54:43;;;;;;;0.73;0.73;;;;;;;8.27;100.00;95034.31;5133689;27;20889;-58
2023/12/07 06:57:11;;;;;;;0.93;0.93;;;;;;;8.48;100.00;95029.81;5133956;27;20443;-58
2023/12/07 06:59:40;;;;;;;2.83;0.80;;;;;;;8.48;100.00;95032.47;5133799;27;20446;-58
2023/12/07 07:02:11;;;;;;;0.43;0.33;;;;;;;8.74;100.00;95036.72;5127965;27;20431;-58
2023/12/07 07:04:39;;;;;;;0.70;0.70;;;;;;;8.75;100.00;95036.44;5122361;27;20995;-59
2023/12/07 07:07:08;;;;;;;0.70;0.70;;;;;;;8.67;100.00;95039.66;5126904;27;20434;-58
2023/12/07 07:09:36;;;;;;;0.70;0.70;;;;;;;8.69;100.00;95034.88;5133582;27;20858;-58
2023/12/07 07:12:06;;;;;;;8.50;1.23;;;;;;;8.95;100.00;95039.09;5133677;27;20442;-58
2023/12/07 07:14:35;;;;;;;0.63;0.63;;;;;;;8.74;100.00;95039.38;5133645;27;20438;-58
2023/12/07 07:17:04;;;;;;;0.47;0.47;;;;;;;8.84;100.00;95034.88;5132586;27;20910;-58
2023/12/07 07:19:34;;;;;;;0.60;0.57;;;;;;;8.71;100.00;95045.16;5133683;27;20553;-59
2023/12/07 07:22:02;;;;;;;1.17;0.90;;;;;;;8.77;100.00;95042.28;5133393;27;20435;-58
2023/12/07 07:24:31;;;;;;;0.50;0.47;;;;;;;8.51;100.00;95051.25;5133597;27;20795;-58
2023/12/07 07:26:59;;;;;;;1.10;1.10;;;;;;;8.42;100.00;95044.91;5132698;27;20434;-58
2023/12/07 07:29:28;;;;;;;2.70;1.30;;;;;;;8.22;100.00;95050.13;5132983;27;20505;-59
2023/12/07 07:31:57;;;;;;;2.10;1.27;;;;;;;7.89;100.00;95047.91;5132936;27;21021;-58
2023/12/07 07:34:26;;;;;;;1.83;1.27;;;;;;;8.05;100.00;95052.16;5132935;27;20447;-58
2023/12/07 07:36:56;;;;;;;1.17;1.10;;;;;;;8.57;100.00;95050.19;5133601;27;20516;-58
2023/12/07 07:39:24;;;;;;;0.70;0.50;;;;;;;8.77;100.00;95050.22;5131000;27;20474;-58
2023/12/07 07:41:53;;;;;;;0.40;0.33;;;;;;;8.93;100.00;95041.22;5130917;27;20448;-58
2023/12/07 07:44:22;;;;;;;0.67;0.60;;;;;;;8.80;100.00;95039.09;5131006;27;20821;-58
2023/12/07 07:46:50;;;;;;;1.20;1.10;;;;;;;9.05;100.00;95051.53;5130762;27;20926;-57
2023/12/07 07:49:19;;;;;;;0.97;0.93;;;;;;;9.14;100.00;95043.84;5130485;27;20842;-58
2023/12/07 07:51:47;;;;;;;10.10;2.13;;;;;;;9.13;100.00;95043.06;5130752;27;20895;-58
2023/12/07 07:54:17;;;;;;;1.00;1.00;;;;;;;9.51;100.00;95039.03;5132744;27;20435;-58
2023/12/07 07:56:46;;;;;;;1.87;1.77;;;;;;;9.49;100.00;95038.47;5132035;27;20442;-57
2023/12/07 07:59:14;;;;;;;6.63;2.10;;;;;;;9.33;100.00;95047.53;5132773;27;20476;-58
2023/12/07 08:01:44;;;;;;;2.20;1.70;;;;;;;9.32;100.00;95045.94;5132628;27;20492;-58
2023/12/07 08:04:13;;;;;;;2.50;2.40;;;;;;;9.41;100.00;95050.41;5132644;27;20438;-58
2023/12/07 08:06:41;;;;;;;0.90;0.90;;;;;;;9.19;100.00;95038.53;5132549;27;20933;-58
2023/12/07 08:09:10;;;;;;;1.70;1.57;;;;;;;9.23;100.00;95055.47;5133130;27;20763;-58
2023/12/07 08:11:40;;;;;;;1.80;1.70;;;;;;;9.24;100.00;95049.13;5132214;27;20487;-57
2023/12/07 08:14:09;;;;;;;13.30;2.03;;;;;;;9.01;100.00;95047.81;5132362;27;20436;-58
2023/12/07 08:16:38;;;;;;;7.13;6.40;;;;;;;9.25;100.00;95051.50;5132626;27;20769;-57
2023/12/07 08:19:07;;;;;;;6.60;1.50;;;;;;;9.51;100.00;95049.59;5132559;27;20553;-58
2023/12/07 08:21:35;;;;;;;2.30;2.17;;;;;;;9.33;100.00;95050.16;5132836;27;20437;-59
2023/12/07 08:24:05;;;;;;;6.20;3.00;;;;;;;9.21;100.00;95055.72;5131995;27;20435;-57
2023/12/07 08:26:34;;;;;;;14.17;2.87;;;;;;;8.57;100.00;95055.47;5132655;27;20434;-57
2023/12/07 08:29:04;;;;;;;2.37;2.27;;;;;;;8.67;100.00;95060.78;5132239;27;20859;-57
2023/12/07 08:31:36;;;;;;;10.30;1.90;;;;;;;9.02;100.00;95061.81;5132682;27;20439;-58
2023/12/07 08:34:04;;;;;;;7.47;1.93;;;;;;;9.13;100.00;95058.94;5132433;27;20430;-57
2023/12/07 08:36:33;;;;;;;1.27;1.23;;;;;;;8.88;100.00;95065.00;5132737;28;20431;-58
2023/12/07 08:39:02;;;;;;;5.20;1.70;;;;;;;8.90;100.00;95067.41;5132432;28;20473;-57
2023/12/07 08:41:30;;;;;;;2.13;2.03;;;;;;;9.06;100.00;95057.63;5132131;27;20958;-57
2023/12/07 08:43:59;;;;;;;1.10;1.10;;;;;;;9.27;100.00;95059.97;5132682;27;20438;-57
2023/12/07 08:46:29;;;;;;;1.30;1.20;;;;;;;9.03;100.00;95058.94;5132447;28;20983;-57
2023/12/07 08:48:58;;;;;;;1.87;1.77;;;;;;;9.09;100.00;95057.84;5131780;27;20527;-57
2023/12/07 08:51:26;;;;;;;1.43;1.17;;;;;;;9.28;100.00;95058.13;5132398;28;20446;-57
2023/12/07 08:53:55;;;;;;;1.23;1.13;;;;;;;9.40;100.00;95059.41;5135163;27;20479;-57
2023/12/07 08:56:25;;;;;;;2.70;1.47;;;;;;;9.67;100.00;95043.19;5136205;27;20462;-57
2023/12/07 08:58:53;;;;;;;2.60;2.40;;;;;;;9.31;100.00;95029.25;5136215;27;20522;-58
2023/12/07 09:01:22;;;;;;;2.83;2.23;;;;;;;9.46;100.00;95052.25;5122428;27;20439;-57
2023/12/07 09:04:02;;;;;;;8.90;2.13;;;;;;;9.48;100.00;95044.84;5136513;27;20836;-57
2023/12/07 09:06:31;;;;;;;1.90;1.27;;;;;;;9.62;100.00;95037.91;5135839;27;20430;-57
2023/12/07 09:09:00;;;;;;;4.10;4.00;;;;;;;9.61;100.00;95040.84;5136503;27;20858;-58
2023/12/07 09:11:29;;;;;;;1.70;1.33;;;;;;;9.52;100.00;95036.09;5136022;27;20438;-58
2023/12/07 09:13:58;;;;;;;0.93;0.93;;;;;;;9.70;100.00;95031.28;5135572;27;20470;-57
2023/12/07 09:16:26;;;;;;;2.90;1.50;;;;;;;9.71;100.00;95030.22;5135408;27;20470;-58
2023/12/07 09:18:55;;;;;;;4.40;1.80;;;;;;;9.90;100.00;95024.06;5135753;27;20511;-58
2023/12/07 09:21:26;;;;;;;2.30;1.70;;;;;;;9.62;100.00;95026.53;5135371;27;20949;-58
2023/12/07 09:23:54;;;;;;;2.20;2.10;;;;;;;9.81;100.00;95027.53;5135537;27;20438;-58
2023/12/07 09:26:23;;;;;;;3.70;1.37;;;;;;;10.04;100.00;95026.91;5135706;27;20438;-59
2023/12/07 09:28:51;;;;;;;7.07;2.70;;;;;;;9.55;100.00;95024.19;5135716;27;20438;-58
2023/12/07 09:31:20;;;;;;;2.03;1.93;;;;;;;9.49;100.00;95025.25;5135749;27;20949;-58
2023/12/07 09:33:48;;;;;;;2.00;1.90;;;;;;;9.93;100.00;95026.16;5135239;27;20442;-58
2023/12/07 09:36:21;;;;;;;1.87;1.77;;;;;;;10.37;100.00;95010.34;5135574;27;20422;-58
2023/12/07 09:38:51;;;;;;;2.57;1.60;;;;;;;10.49;100.00;95020.59;5135169;27;20526;-58
2023/12/07 09:41:21;;;;;;;4.23;1.67;;;;;;;10.67;100.00;95012.78;5135898;27;20462;-58
2023/12/07 09:43:49;;;;;;;2.97;1.60;;;;;;;10.36;100.00;95021.19;5135297;27;20446;-59
2023/12/07 09:46:19;;;;;;;1.60;1.13;;;;;;;10.15;100.00;95016.00;5135722;27;20779;-58
2023/12/07 09:48:50;;;;;;;3.13;1.20;;;;;;;10.40;100.00;95011.66;5135251;27;21689;-57
2023/12/07 09:51:20;;;;;;;4.87;2.00;;;;;;;10.22;100.00;95004.34;5135197;27;20446;-58
2023/12/07 09:53:54;;;;;;;0.80;0.80;;;;;;;10.44;100.00;95004.72;5134785;27;20526;-58
2023/12/07 09:56:23;;;;;;;1.87;1.77;;;;;;;10.56;100.00;95002.50;5134776;27;20446;-58
2023/12/07 09:58:51;;;;;;;0.63;0.47;;;;;;;11.00;100.00;94997.13;5134988;27;20473;-58
2023/12/07 10:01:20;;;;;;;0.80;0.63;;;;;;;10.70;100.00;95008.78;5135371;27;20962;-59
2023/12/07 10:03:49;;;;;;;2.10;2.00;;;;;;;10.77;100.00;95002.09;5133536;27;20434;-58
2023/12/07 10:06:17;;;;;;;2.07;1.87;;;;;;;10.87;100.00;95003.06;5134856;27;20465;-58
2023/12/07 10:08:46;;;;;;;5.37;4.87;;;;;;;10.54;100.00;95000.16;5135092;27;20443;-59
2023/12/07 10:11:18;;;;;;;2.90;2.57;;;;;;;10.24;100.00;94938.63;5135091;27;20502;-59
2023/12/07 10:13:47;;;;;;;1.70;1.43;;;;;;;10.65;100.00;94990.28;5134430;27;20948;-58
2023/12/07 10:16:18;;;;;;;2.10;1.90;;;;;;;10.72;100.00;94993.38;5134672;27;20937;-58
2023/12/07 10:18:49;;;;;;;1.70;1.60;;;;;;;11.06;100.00;94988.03;5134986;27;20438;-58
2023/12/07 10:21:33;;;;;;;0.90;0.90;;;;;;;11.51;100.00;94986.81;5134138;27;20838;-58
2023/12/07 10:24:02;;;;;;;2.03;1.40;;;;;;;11.53;100.00;94987.31;5134338;27;20558;-58
2023/12/07 10:26:33;;;;;;;8.20;1.83;;;;;;;11.62;99.09;94985.59;5107353;27;20961;-58
2023/12/07 10:29:06;;;;;;;5.47;1.00;;;;;;;11.59;99.52;94975.53;5134744;27;20491;-58
2023/12/07 10:31:38;;;;;;;1.97;1.13;;;;;;;11.17;100.00;94960.34;5134664;27;20435;-58
2023/12/07 10:34:07;;;;;;;1.40;1.30;;;;;;;10.93;100.00;94975.44;5134221;27;20525;-57
2023/12/07 10:36:35;;;;;;;0.83;0.83;;;;;;;10.99;100.00;94974.31;5134260;27;20451;-58
2023/12/07 10:39:07;;;;;;;1.27;1.17;;;;;;;11.35;100.00;94965.75;5134333;27;20557;-58
2023/12/07 10:41:48;;;;;;;2.80;2.27;;;;;;;11.25;100.00;94963.19;5128847;27;20462;-58
2023/12/07 10:44:18;;;;;;;2.40;0.97;;;;;;;11.06;100.00;94964.16;5123144;27;20443;-58
2023/12/07 10:46:48;;;;;;;1.93;1.83;;;;;;;11.21;100.00;94958.72;5133764;27;20946;-58
2023/12/07 10:49:22;;;;;;;1.43;1.33;;;;;;;10.98;100.00;94965.56;5106880;27;20466;-58
2023/12/07 10:52:07;;;;;;;6.83;1.73;;;;;;;11.08;100.00;94962.81;5133682;27;20943;-58
2023/12/07 10:54:42;;;;;;;1.67;1.57;;;;;;;11.14;100.00;94953.75;5134075;27;20435;-58
2023/12/07 10:57:15;;;;;;;4.73;1.30;;;;;;;11.43;100.00;94951.81;5133726;27;20437;-57
2023/12/07 10:59:45;;;;;;;1.23;0.83;;;;;;;11.65;100.00;94937.25;5134023;27;20549;-58
2023/12/07 11:02:17;;;;;;;2.27;1.80;;;;;;;11.57;100.00;94949.28;5133412;27;20438;-58
2023/12/07 11:04:50;;;;;;;4.30;2.47;;;;;;;11.60;99.04;94921.38;5133733;27;20441;-58
2023/12/07 11:07:23;;;;;;;1.47;1.37;;;;;;;11.48;99.46;94935.09;5133502;27;20445;-59
2023/12/07 11:09:59;;;;;;;1.87;1.77;;;;;;;11.64;99.05;94927.72;5130293;27;20458;-58
2023/12/07 11:12:38;;;;;;;5.03;1.70;;;;;;;11.48;98.09;94933.19;5130785;27;20494;-59
2023/12/07 11:15:08;;;;;;;1.07;0.97;;;;;;;11.79;98.42;94940.84;5132191;27;20434;-58
2023/12/07 11:17:51;;;;;;;1.70;1.60;;;;;;;12.05;98.23;94928.78;5132984;27;20439;-57
2023/12/07 11:20:21;;;;;;;3.50;2.63;;;;;;;12.22;95.96;94918.44;5133456;27;20474;-57
2023/12/07 11:22:51;;;;;;;0.87;0.87;;;;;;;12.61;92.48;94921.53;5132756;27;20477;-58
2023/12/07 11:25:21;;;;;;;2.20;0.67;;;;;;;12.82;91.93;94915.88;5132593;27;20434;-57
2023/12/07 11:28:02;;;;;;;1.90;1.20;;;;;;;13.48;86.00;94913.63;5133232;27;20469;-58
2023/12/07 11:30:33;;;;;;;5.83;1.43;;;;;;;12.65;87.23;94826.03;5133340;27;20438;-58
2023/12/07 11:33:02;;;;;;;5.10;2.90;;;;;;;12.89;85.64;94911.75;5133448;27;20431;-59
2023/12/07 11:35:31;;;;;;;2.27;2.10;;;;;;;12.95;85.54;94915.13;5132821;27;20490;-59
2023/12/07 11:38:06;;;;;;;0.87;0.87;;;;;;;13.20;83.64;94896.84;5111230;27;20947;-60
2023/12/07 11:40:38;;;;;;;1.47;1.37;;;;;;;13.46;84.32;94894.47;5132897;27;20505;-61
2023/12/07 11:43:08;;;;;;;1.00;1.00;;;;;;;13.76;82.72;94887.75;5132876;27;20441;-61